• Join FlightAware (Why Join?)
  • Login
  • US Flag 
08:38PM EDT


 

Airport Tracker/Info


-or-


 

Live Flight TrackerFlight Track Log ✈ N69542 ✈ 28-Apr-2012 ✈ KMYF - KGYR

Flight Track Log - Related Links

Times and Time Zones

All times are in EDT time to prevent confusion due to time zone crossing. See the N69542 flight status page for this flight to view local times or setup timezone preferences in your user account.

Time Position Orientation Groundspeed Altitude Reporting Facility
EDT Latitude Longitude Course Direction KTS MPH feet Rate Location/Type
01:29PM 32.8170 -117.1232 282° West  Level FlightAware Approximate
01:30PM 32.8333 -117.2167 295° West 137 158 2,600  Level Southern California TRACON
01:31PM 32.8428 -117.2411 17° North 137 158 3,200 780 Climbing Los Angeles Center
01:32PM 32.8700 -117.2314 105° East 161 185 4,000 360 Climbing Los Angeles Center
01:33PM 32.8581 -117.1769 104° East 182 209 4,000 360 Level Los Angeles Center
01:34PM 32.8481 -117.1275 107° East 163 188 4,800 900 Climbing Los Angeles Center
01:35PM 32.8358 -117.0803 106° East 146 168 5,800 900 Climbing Los Angeles Center
01:36PM 32.8236 -117.0283 101° East 151 174 6,700 900 Climbing Los Angeles Center
01:37PM 32.8156 -116.9811 104° East 151 174 7,700 900 Climbing Los Angeles Center
01:38PM 32.8056 -116.9317 106° East 156 180 8,600 780 Climbing Los Angeles Center
01:39PM 32.7914 -116.8747 107° East 173 199 9,300 840 Climbing Los Angeles Center
01:40PM 32.7769 -116.8203 90° East 173 199 10,300 780 Climbing Los Angeles Center
01:41PM 32.7772 -116.7683 92° East 180 207 10,900 300 Climbing Los Angeles Center
01:42PM 32.7756 -116.7017 92° East 190 219 11,000  Climbing Los Angeles Center
01:43PM 32.7739 -116.6325 92° East 201 231 11,000  Level Los Angeles Center
01:44PM 32.7719 -116.5608 92° East 201 231 11,000 -60 Level Los Angeles Center
01:45PM 32.7703 -116.4917 92° East 206 237 10,900 -60 Descending Los Angeles Center
01:46PM 32.7683 -116.4200 91° East 211 243 10,900  Level Los Angeles Center
01:48PM 32.7664 -116.2767 92° East 216 249 11,000  Climbing Los Angeles Center
01:49PM 32.7644 -116.1978 90° East 216 249 11,000  Level Los Angeles Center
01:50PM 32.7644 -116.1286 92° East 216 249 11,000  Level Los Angeles Center
01:51PM 32.7622 -116.0569 92° East 216 249 11,000  Level Los Angeles Center
01:52PM 32.7603 -115.9853 90° East 216 249 11,000  Level Los Angeles Center
01:53PM 32.7600 -115.9136 92° East 216 249 11,000  Level Los Angeles Center
01:54PM 32.7578 -115.8447 92° East 216 249 11,000  Level Los Angeles Center
01:55PM 32.7556 -115.7731 90° East 216 249 11,000  Level Los Angeles Center
01:56PM 32.7553 -115.7064 92° East 211 243 11,000  Level Los Angeles Center
01:57PM 32.7531 -115.6372 92° East 211 243 11,000  Level Los Angeles Center
01:58PM 32.7508 -115.5706 91° East 206 237 11,000  Level Los Angeles Center
01:59PM 32.7503 -115.5014 88° East 206 237 11,000  Level Los Angeles Center
02:00PM 32.7522 -115.4322 88° East 206 237 11,000  Level Los Angeles Center
02:01PM 32.7539 -115.3656 88° East 201 231 11,000  Level Los Angeles Center
02:02PM 32.7556 -115.2964 89° East 196 226 11,000  Level Los Angeles Center
02:03PM 32.7569 -115.2297 88° East 196 226 11,000  Level Los Angeles Center
02:04PM 32.7586 -115.1606 88° East 196 226 11,000  Level Los Angeles Center
02:05PM 32.7603 -115.0939 89° East 196 226 11,000  Level Los Angeles Center
02:06PM 32.7617 -115.0247 89° East 196 226 11,000  Level Los Angeles Center
02:07PM 32.7631 -114.9556 89° East 196 226 11,000  Level Los Angeles Center
02:08PM 32.7644 -114.8861 88° East 196 226 11,000  Level Los Angeles Center
02:09PM 32.7661 -114.8319 91° East 201 231 11,000  Level Los Angeles Center
02:10PM 32.7653 -114.7628 87° East 201 231 11,100  Climbing Los Angeles Center
02:11PM 32.7686 -114.6786 89° East 201 231 11,100  Level Los Angeles Center
02:12PM 32.7697 -114.6119 89° East 201 231 11,100  Level Los Angeles Center
02:13PM 32.7708 -114.5403 89° East 201 231 11,100 -60 Level Los Angeles Center
02:14PM 32.7722 -114.4686 89° East 201 231 11,000 -60 Descending Los Angeles Center
02:15PM 32.7733 -114.3994 89° East 201 231 11,000  Level Los Angeles Center
02:16PM 32.7744 -114.3303 89° East 206 237 11,100  Climbing Los Angeles Center
02:20PM 32.7767 -114.0169 82° East 230 265 11,000  Descending Albuquerque Center
02:21PM 32.7842 -113.9558 69° East 222 255 11,100  Climbing Albuquerque Center
02:22PM 32.8044 -113.8931 68° East 210 242 11,000 -60 Descending Albuquerque Center
02:23PM 32.8267 -113.8281 69° East 210 242 11,000  Level Albuquerque Center
02:24PM 32.8467 -113.7653 68° East 205 236 11,100  Climbing Albuquerque Center
02:25PM 32.8692 -113.6978 69° East 200 230 11,100 -60 Level Albuquerque Center
02:26PM 32.8889 -113.6375 67° East 205 236 11,000  Descending Albuquerque Center
02:27PM 32.9136 -113.5675 38° Northeast 205 236 11,100  Climbing Albuquerque Center
02:28PM 32.9550 -113.5286 48° Northeast 199 229 11,000 -180 Descending Albuquerque Center
02:29PM 32.9933 -113.4769 50° Northeast 199 229 10,800 -300 Descending Albuquerque Center
02:30PM 33.0314 -113.4228 49° Northeast 204 235 10,400 -360 Descending Albuquerque Center
02:31PM 33.0694 -113.3711 51° Northeast 204 235 10,100 -480 Descending Albuquerque Center
02:32PM 33.1078 -113.3142 49° Northeast 204 235 9,500 -540 Descending Albuquerque Center
02:33PM 33.1458 -113.2622 51° Northeast 204 235 9,100 -480 Descending Albuquerque Center
02:34PM 33.1750 -113.2197 48° Northeast 206 237 8,700 -480 Descending Albuquerque Center
02:35PM 33.2197 -113.1608 51° Northeast 199 229 8,200 -540 Descending Albuquerque Center
02:36PM 33.2556 -113.1086 49° Northeast 199 229 7,600 -540 Descending Albuquerque Center
02:37PM 33.2936 -113.0567 51° Northeast 199 229 7,200 -300 Descending Albuquerque Center
02:38PM 33.3294 -113.0044 50° Northeast 199 229 7,000 -120 Descending Albuquerque Center
02:39PM 33.3628 -112.9569 50° Northeast 199 229 7,000  Level Albuquerque Center
02:40PM 33.3964 -112.9094 50° Northeast 199 229 7,000 -60 Level Albuquerque Center
02:41PM 33.4300 -112.8619 78° East 193 222 6,900 -480 Descending Albuquerque Center
02:42PM 33.4414 -112.7953 94° East 183 211 6,100 -720 Descending Albuquerque Center
02:43PM 33.4367 -112.7131 93° East 203 234 5,400 -720 Descending Albuquerque Center
02:44PM 33.4347 -112.6631 97° East 195 224 4,700 -840 Descending Albuquerque Center
02:45PM 33.4258 -112.5806 84° East 202 232 3,700 -900 Descending Albuquerque Center
02:46PM 33.4303 -112.5283 92° East 200 230 3,000 -780 Descending Albuquerque Center
02:47PM 33.4286 -112.4661 84° East 195 224 2,300 -480 Descending Albuquerque Center
02:48PM 33.4328 -112.4167 52° Northeast 175 201 2,100 -180 Descending Albuquerque Center
02:49PM 33.4575 -112.3783 132° Southeast 124 143 1,900 -300 Descending Albuquerque Center
02:50PM 33.4417 -112.3575 132° Southeast 104 120 1,500 -420 Descending Albuquerque Center